East Corinth, VT (05076)

7:16 AM EDT on September 19, 2019 (GMT -0400)
Route 25, Topsham | | Change Station
Active Advisory: Frost Advisory

Elev 1375 ft 44.13 °N, 72.32 °W | Updated 11 seconds ago

Fog
Fog
32.2 °F
Feels Like 32 °F
N
0
Wind Variable Wind from SW
Gusts 0.0 mph

Today
High -- | Low -- °F
--% Chance of Precip.
Yesterday
High -- | Low -- °F
Precip. -- in
Pressure 30.43 in
Visibility 0.2 miles
Clouds
Windchill 32 °F
Dew Point 27 °F
Humidity 82%
Rainfall 0.00 in
Snow Depth Not available.
6:32 AM 6:52 PM
Waning Gibbous, 76% visible
METAR KMPV 191051Z AUTO 00000KT M1/4SM FG VV001 01/01 A3039 RMK AO2 SLP302 T00110011
Pressure 30.43 in
Visibility 0.2 miles
Clouds
Windchill 32 °F
Dew Point 27 °F
Humidity 82%
Rainfall 0.00 in
Snow Depth Not available.
6:32 AM 6:52 PM
Waning Gibbous, 76% visible
METAR KMPV 191051Z AUTO 00000KT M1/4SM FG VV001 01/01 A3039 RMK AO2 SLP302 T00110011

Get Your Daily Forecast Email!

Thanks for signing up!

Be on the lookout for a verification email in your inbox.

You'll start receiving severe weather alerts in your inbox..

×

10-Day Weather Forecast

Almanac

Astronomy

Sep. 19, 2019 Rise Set
Actual Time
Civil Twilight
Nautical Twilight
Astronomical Twilight
Moon
Length of Visible Light
Length of Day
Tomorrow will be .
, % of the Moon is Illuminated

Today's Extremes

State Highs State Lows

Community

WunderPhotos

Category 6

Welcome to Category 6. This is the collective home for Weather Underground's featured writeups by Dr. Jeff Masters (right), Bob Henson (left), Chris Burt, and other regular contributors.

Nearby

Air Quality

  Air Quality AQ Index Pollutant
Not available.

Snow Depth

Station Depth Elevation

Earthquake Activity

City Distance Mag. Time & Date
Minimum magnitude displayed is 2.5.

Coastal Water Temperatures

Place Temperature

Stations

Nearby Weather Stations

Station Location Temp. Windchill Dew Point Humidity Wind Precip. Elev Updated Type
                   

Watches & Warnings

Frost Advisory
Issued: 3:19 AM EDT Sep. 19, 2019 – National Weather Service

... Frost advisory remains in effect until 9 am EDT this morning...

* locations... the northern Adirondacks and most of eastern
Vermont.

* Temperatures... as low as 33 degrees.

* Timing... through 900 am this morning.

* Impacts... frost could harm sensitive outdoor vegetation.

Precautionary/preparedness actions...

A frost advisory means that frost is possible. Sensitive outdoor
plants may be killed if left uncovered.